Time;durP1;ratioP1;P1;durP2;ratioP2;P2;SDS_P1;SDS_P2;PMS_P1;PMS_P2;Temp;Humidity;BMP_temperature;BMP_pressure;BME280_temperature;BME280_humidity;BME280_pressure;Samples;Min_cycle;Max_cycle;Signal;HPM_P1;HPM_P2
2024/03/12 00:00:53;;;;;;;1.40;1.30;;;7.00;99.90;;;;;;5113775;28;20262;-62
2024/03/12 00:03:19;;;;;;;2.42;2.22;;;7.10;99.90;;;;;;5113551;28;20692;-62
2024/03/12 00:05:45;;;;;;;3.05;2.65;;;7.00;99.90;;;;;;5113889;28;20186;-62
2024/03/12 00:08:10;;;;;;;2.87;2.17;;;7.00;99.90;;;;;;5113344;28;20175;-62
2024/03/12 00:10:36;;;;;;;2.23;2.10;;;7.00;99.90;;;;;;5113697;28;20655;-62
2024/03/12 00:13:02;;;;;;;2.60;2.40;;;6.90;99.90;;;;;;5113477;28;20203;-62
2024/03/12 00:15:28;;;;;;;2.87;2.40;;;6.80;99.90;;;;;;5113494;28;20577;-62
2024/03/12 00:17:54;;;;;;;2.35;1.90;;;6.80;99.90;;;;;;5112277;27;20559;-62
2024/03/12 00:20:29;;;;;;;2.40;2.20;;;6.80;99.90;;;;;;5113383;28;20170;-62
2024/03/12 00:22:56;;;;;;;2.00;1.90;;;6.90;99.90;;;;;;5113313;28;20188;-62
2024/03/12 00:25:22;;;;;;;1.88;1.77;;;6.80;99.90;;;;;;5113345;28;20216;-62
2024/03/12 00:27:50;;;;;;;1.93;1.60;;;6.80;99.90;;;;;;5113161;28;20162;-62
2024/03/12 00:30:18;;;;;;;2.55;1.60;;;6.80;99.90;;;;;;5112826;28;20413;-62
2024/03/12 00:32:47;;;;;;;1.92;1.83;;;6.80;99.90;;;;;;5112896;28;20264;-62
2024/03/12 00:35:14;;;;;;;2.08;1.63;;;6.80;99.90;;;;;;5113124;28;20667;-62
2024/03/12 00:37:47;;;;;;;3.17;1.98;;;6.80;99.90;;;;;;5113044;28;20229;-61
2024/03/12 00:40:13;;;;;;;2.00;1.52;;;6.80;99.90;;;;;;5112980;28;20158;-62
2024/03/12 00:42:41;;;;;;;3.65;2.33;;;6.90;99.90;;;;;;5112906;28;20202;-62
2024/03/12 00:45:11;;;;;;;1.63;1.52;;;6.90;99.90;;;;;;5113147;28;20641;-62
2024/03/12 00:47:46;;;;;;;5.93;2.42;;;7.00;99.90;;;;;;5113118;28;20264;-62
2024/03/12 00:50:12;;;;;;;2.60;2.00;;;6.90;99.80;;;;;;5112714;28;20557;-61
2024/03/12 00:52:38;;;;;;;2.50;2.30;;;6.90;99.90;;;;;;5112735;28;20189;-61
2024/03/12 00:55:16;;;;;;;1.40;1.23;;;6.90;99.90;;;;;;5112721;28;20201;-62
2024/03/12 00:57:42;;;;;;;1.70;1.60;;;7.00;99.90;;;;;;5112565;28;20734;-62
2024/03/12 01:00:22;;;;;;;1.35;1.25;;;7.00;99.90;;;;;;5112696;28;20204;-62
2024/03/12 01:02:53;;;;;;;2.42;1.90;;;7.10;99.90;;;;;;5112681;28;20571;-62
2024/03/12 01:05:20;;;;;;;2.33;2.13;;;7.10;99.90;;;;;;5112708;28;20170;-62
2024/03/12 01:07:47;;;;;;;2.58;2.38;;;7.20;99.90;;;;;;5112350;28;20175;-62
2024/03/12 01:10:14;;;;;;;4.65;2.08;;;7.10;99.90;;;;;;5112363;28;20208;-62
2024/03/12 01:12:40;;;;;;;2.92;2.70;;;7.10;99.90;;;;;;5112439;28;20185;-62
2024/03/12 01:15:08;;;;;;;2.40;2.20;;;7.10;99.90;;;;;;5112390;28;20206;-62
2024/03/12 01:17:37;;;;;;;2.22;2.05;;;7.10;99.90;;;;;;5112380;28;20503;-62
2024/03/12 01:20:05;;;;;;;2.08;1.98;;;7.10;99.90;;;;;;5112717;28;20200;-62
2024/03/12 01:22:30;;;;;;;3.80;2.65;;;7.10;99.90;;;;;;5112176;28;20199;-62
2024/03/12 01:24:57;;;;;;;2.33;1.83;;;7.00;99.90;;;;;;5112357;28;20179;-62
2024/03/12 01:27:24;;;;;;;2.30;2.10;;;7.00;99.90;;;;;;5112228;28;20182;-62
2024/03/12 01:29:49;;;;;;;4.13;2.90;;;7.10;99.90;;;;;;5111782;28;20178;-62
2024/03/12 01:32:15;;;;;;;1.77;1.67;;;7.10;99.90;;;;;;5112161;28;20257;-62
2024/03/12 01:34:43;;;;;;;2.63;2.30;;;7.10;99.90;;;;;;5112021;28;20607;-62
2024/03/12 01:37:08;;;;;;;2.60;2.40;;;7.20;99.90;;;;;;5111998;28;20708;-61
2024/03/12 01:39:38;;;;;;;8.03;3.00;;;7.20;99.90;;;;;;5111942;28;20178;-62
2024/03/12 01:42:05;;;;;;;2.22;2.13;;;7.10;99.80;;;;;;5112224;28;20166;-62
2024/03/12 01:44:31;;;;;;;2.40;2.20;;;7.10;99.90;;;;;;5111849;28;20178;-62
2024/03/12 01:46:57;;;;;;;2.03;1.90;;;6.90;99.90;;;;;;5112142;28;20235;-62
2024/03/12 01:49:23;;;;;;;1.60;1.50;;;6.90;99.90;;;;;;5111740;28;20258;-62
2024/03/12 01:51:49;;;;;;;4.93;2.30;;;6.90;99.90;;;;;;5112013;28;20242;-61
2024/03/12 01:54:15;;;;;;;1.95;1.63;;;6.80;99.90;;;;;;5112076;28;20858;-62
2024/03/12 01:56:41;;;;;;;1.73;1.48;;;6.70;99.90;;;;;;5111985;28;20232;-62
2024/03/12 01:59:07;;;;;;;2.80;1.90;;;6.70;99.90;;;;;;5112002;28;20190;-62
2024/03/12 02:01:32;;;;;;;2.03;1.73;;;6.70;99.90;;;;;;5111982;28;20404;-62
2024/03/12 02:03:58;;;;;;;1.93;1.70;;;6.70;99.90;;;;;;5111794;28;21128;-62
2024/03/12 02:06:24;;;;;;;1.50;1.40;;;6.80;99.90;;;;;;5112044;28;20177;-62
2024/03/12 02:08:52;;;;;;;5.55;2.30;;;6.90;99.90;;;;;;5111786;28;20188;-62
2024/03/12 02:11:18;;;;;;;2.00;1.80;;;6.90;99.90;;;;;;5111811;28;20241;-62
2024/03/12 02:13:44;;;;;;;1.80;1.57;;;6.90;99.90;;;;;;5111842;28;20258;-62
2024/03/12 02:16:10;;;;;;;2.13;1.90;;;6.90;99.90;;;;;;5111817;28;20405;-62
2024/03/12 02:18:39;;;;;;;2.33;2.20;;;6.80;99.90;;;;;;5111415;28;20556;-62
2024/03/12 02:21:05;;;;;;;2.65;2.00;;;6.70;99.90;;;;;;5111784;28;20711;-62
2024/03/12 02:23:41;;;;;;;3.20;2.90;;;6.60;99.90;;;;;;5111624;28;20266;-61
2024/03/12 02:26:09;;;;;;;3.05;2.50;;;6.50;99.90;;;;;;5111664;28;20250;-62
2024/03/12 02:28:35;;;;;;;3.92;2.90;;;6.70;99.90;;;;;;5111462;28;20184;-61
2024/03/12 02:31:01;;;;;;;2.40;2.20;;;6.70;99.90;;;;;;5111633;28;20265;-62
2024/03/12 02:33:27;;;;;;;2.90;2.70;;;6.70;99.90;;;;;;5111359;28;20287;-62
2024/03/12 02:35:52;;;;;;;2.00;1.87;;;6.60;99.90;;;;;;5111684;28;20171;-62
2024/03/12 02:38:18;;;;;;;2.93;2.70;;;6.50;99.90;;;;;;5111459;28;20405;-61
2024/03/12 02:40:45;;;;;;;2.50;2.33;;;6.50;99.90;;;;;;5112275;28;20170;-62
2024/03/12 02:43:11;;;;;;;2.35;2.15;;;6.50;99.90;;;;;;5115270;28;20653;-62
2024/03/12 02:45:38;;;;;;;2.10;2.00;;;6.60;99.90;;;;;;5115215;28;20548;-62
2024/03/12 02:48:05;;;;;;;2.85;2.55;;;6.70;99.90;;;;;;5115127;28;20232;-62
2024/03/12 02:50:31;;;;;;;2.22;2.00;;;6.70;99.90;;;;;;5115151;28;20172;-61
2024/03/12 02:52:57;;;;;;;3.37;3.07;;;6.70;99.90;;;;;;5114982;28;20231;-62
2024/03/12 02:55:23;;;;;;;3.00;2.80;;;6.60;99.90;;;;;;5115099;28;20392;-62
2024/03/12 02:57:48;;;;;;;3.17;1.90;;;6.70;99.90;;;;;;5114905;28;20409;-62
2024/03/12 03:00:14;;;;;;;3.80;2.27;;;6.70;99.90;;;;;;5114797;28;20464;-62
2024/03/12 03:02:41;;;;;;;3.60;2.60;;;6.60;99.90;;;;;;5114885;28;20189;-62
2024/03/12 03:05:07;;;;;;;3.80;2.40;;;6.70;99.90;;;;;;5115043;28;20181;-62
2024/03/12 03:07:35;;;;;;;2.67;2.40;;;6.70;99.90;;;;;;5114927;28;20183;-62
2024/03/12 03:10:01;;;;;;;3.17;2.83;;;6.70;99.90;;;;;;5114603;28;20182;-61
2024/03/12 03:12:27;;;;;;;3.23;3.00;;;6.60;99.90;;;;;;5114650;28;20199;-62
2024/03/12 03:14:52;;;;;;;3.10;2.73;;;6.80;99.90;;;;;;5114559;28;20453;-61
2024/03/12 03:17:20;;;;;;;4.20;3.27;;;6.80;99.90;;;;;;5114671;28;20401;-62
2024/03/12 03:19:48;;;;;;;3.88;2.88;;;6.70;99.90;;;;;;5114502;28;20256;-62
2024/03/12 03:22:14;;;;;;;2.90;2.70;;;6.60;99.90;;;;;;5114405;28;20179;-62
2024/03/12 03:24:40;;;;;;;2.60;2.40;;;6.50;99.90;;;;;;5114534;28;20223;-62
2024/03/12 03:27:06;;;;;;;3.30;2.50;;;6.50;99.90;;;;;;5114450;28;20446;-62
2024/03/12 03:29:34;;;;;;;3.17;2.72;;;6.40;99.90;;;;;;5114016;28;20167;-62
2024/03/12 03:32:00;;;;;;;2.65;2.35;;;6.20;99.90;;;;;;5114384;28;20174;-62
2024/03/12 03:34:29;;;;;;;2.70;2.50;;;6.10;99.90;;;;;;5114079;28;20696;-62
2024/03/12 03:36:55;;;;;;;2.70;2.30;;;6.10;99.90;;;;;;5114330;28;20216;-61
2024/03/12 03:39:26;;;;;;;2.50;2.33;;;6.20;99.90;;;;;;5113938;28;20221;-61
2024/03/12 03:41:52;;;;;;;2.88;2.67;;;6.10;99.90;;;;;;5114072;28;20177;-62
2024/03/12 03:44:18;;;;;;;2.42;2.22;;;6.10;99.90;;;;;;5114002;28;20202;-62
2024/03/12 03:46:44;;;;;;;2.13;1.80;;;6.20;99.90;;;;;;5114091;28;20221;-61
2024/03/12 03:49:10;;;;;;;3.15;2.85;;;6.20;99.90;;;;;;5113749;28;20780;-61
2024/03/12 03:51:36;;;;;;;2.93;2.63;;;6.00;99.90;;;;;;5112539;28;20177;-62
2024/03/12 03:54:02;;;;;;;3.03;2.63;;;6.30;99.90;;;;;;5113666;28;20454;-62
2024/03/12 03:56:31;;;;;;;2.30;2.03;;;6.40;99.90;;;;;;5113924;28;20528;-62
2024/03/12 03:58:58;;;;;;;2.10;1.85;;;6.50;99.90;;;;;;5113717;28;20178;-62
2024/03/12 04:01:24;;;;;;;2.10;1.65;;;6.50;99.90;;;;;;5113810;28;20207;-62
2024/03/12 04:03:53;;;;;;;1.40;1.13;;;6.60;99.90;;;;;;5113734;28;20568;-61
2024/03/12 04:06:22;;;;;;;1.65;1.55;;;6.70;99.90;;;;;;5113706;28;20573;-62
2024/03/12 04:08:54;;;;;;;3.03;1.48;;;6.70;99.90;;;;;;5113256;28;20181;-61
2024/03/12 04:11:20;;;;;;;1.30;1.20;;;6.70;99.90;;;;;;5113673;28;20442;-62
2024/03/12 04:13:46;;;;;;;1.27;0.83;;;6.60;99.90;;;;;;5113387;28;20206;-62
2024/03/12 04:16:12;;;;;;;1.02;0.90;;;6.60;99.90;;;;;;5113501;28;20171;-62
2024/03/12 04:18:38;;;;;;;0.50;0.50;;;6.60;99.90;;;;;;5112836;28;20199;-61
2024/03/12 04:21:05;;;;;;;1.05;0.95;;;6.50;99.90;;;;;;5113761;28;20168;-61
2024/03/12 04:23:31;;;;;;;0.73;0.73;;;6.60;99.90;;;;;;5113226;28;20227;-62
2024/03/12 04:25:56;;;;;;;0.93;0.70;;;6.50;99.90;;;;;;5113308;28;20171;-61
2024/03/12 04:28:22;;;;;;;0.77;0.63;;;6.60;99.90;;;;;;5112981;28;20174;-62
2024/03/12 04:30:51;;;;;;;1.00;0.87;;;6.60;99.90;;;;;;5113331;28;20172;-62
2024/03/12 04:33:17;;;;;;;1.52;1.42;;;6.60;99.90;;;;;;5112854;28;20202;-62
2024/03/12 04:35:46;;;;;;;1.03;0.93;;;6.50;99.90;;;;;;5113015;28;20168;-62
2024/03/12 04:38:14;;;;;;;1.70;0.50;;;6.40;99.90;;;;;;5112828;28;20874;-62
2024/03/12 04:40:41;;;;;;;0.70;0.70;;;6.40;99.90;;;;;;5113211;28;20184;-62
2024/03/12 04:43:07;;;;;;;0.80;0.70;;;6.30;99.90;;;;;;5112711;28;20193;-61
2024/03/12 04:45:32;;;;;;;0.43;0.43;;;6.20;99.90;;;;;;5112991;28;20181;-62
2024/03/12 04:47:58;;;;;;;0.70;0.70;;;6.10;99.90;;;;;;5112538;28;20164;-62
2024/03/12 04:50:24;;;;;;;0.93;0.67;;;6.00;99.90;;;;;;5112769;28;20171;-61
2024/03/12 04:52:50;;;;;;;0.80;0.80;;;5.90;99.90;;;;;;5112874;28;20745;-61
2024/03/12 04:55:16;;;;;;;0.60;0.60;;;6.00;99.90;;;;;;5112757;28;20199;-61
2024/03/12 04:57:42;;;;;;;0.77;0.60;;;6.10;99.90;;;;;;5112730;28;20171;-62
2024/03/12 05:00:13;;;;;;;0.40;0.40;;;6.20;99.90;;;;;;5112640;28;20186;-62
2024/03/12 05:02:39;;;;;;;0.77;0.77;;;6.20;99.90;;;;;;5113137;28;20198;-62
2024/03/12 05:05:07;;;;;;;0.55;0.47;;;6.10;99.90;;;;;;5112232;28;20203;-62
2024/03/12 05:07:33;;;;;;;0.85;0.73;;;6.10;99.90;;;;;;5112791;28;20354;-62
2024/03/12 05:09:59;;;;;;;0.77;0.77;;;6.20;99.90;;;;;;5112282;28;20177;-62
2024/03/12 05:14:53;;;;;;;0.63;0.52;;;6.30;99.90;;;;;;5067775;28;20214;-61
2024/03/12 05:17:18;;;;;;;0.70;0.53;;;6.30;99.90;;;;;;5071917;28;20162;-61
2024/03/12 05:19:44;;;;;;;0.50;0.50;;;6.30;99.90;;;;;;5071509;28;20183;-61
2024/03/12 05:22:09;;;;;;;0.70;0.50;;;6.30;99.90;;;;;;5071802;28;20539;-59
2024/03/12 05:24:35;;;;;;;0.47;0.47;;;6.40;99.90;;;;;;5071699;28;20192;-60
2024/03/12 05:27:01;;;;;;;1.50;0.50;;;6.40;99.90;;;;;;5071768;28;20177;-61
2024/03/12 05:29:36;;;;;;;0.82;0.75;;;6.40;99.90;;;;;;5071318;28;20170;-61
2024/03/12 05:32:17;;;;;;;0.60;0.55;;;6.20;99.90;;;;;;5071683;28;20555;-61
2024/03/12 05:34:45;;;;;;;0.50;0.50;;;6.00;99.90;;;;;;5071546;28;20206;-61
2024/03/12 05:37:28;;;;;;;0.50;0.50;;;5.90;99.90;;;;;;5071604;28;20248;-61
2024/03/12 05:40:12;;;;;;;0.60;0.60;;;6.00;99.90;;;;;;5071330;28;20256;-61
2024/03/12 05:48:09;;;;;;;0.60;0.57;;;6.20;99.90;;;;;;5071250;28;20193;-59
2024/03/12 05:50:41;;;;;;;0.80;0.52;;;6.30;99.90;;;;;;5071532;28;20166;-60
2024/03/12 05:53:10;;;;;;;0.82;0.60;;;6.30;99.90;;;;;;5071300;28;20201;-60
2024/03/12 05:55:36;;;;;;;0.50;0.50;;;6.10;99.90;;;;;;5071466;28;20292;-60
2024/03/12 05:58:03;;;;;;;0.70;0.70;;;6.00;99.90;;;;;;5071238;28;20627;-60
2024/03/12 06:00:30;;;;;;;0.40;0.40;;;6.00;99.90;;;;;;5071409;28;20207;-60
2024/03/12 06:02:55;;;;;;;0.77;0.77;;;6.10;99.90;;;;;;5071239;28;20189;-60
2024/03/12 06:05:21;;;;;;;0.70;0.70;;;6.20;99.90;;;;;;5071636;28;20177;-60
2024/03/12 06:07:52;;;;;;;0.70;0.70;;;6.20;99.90;;;;;;5071181;28;20245;-61
2024/03/12 06:10:18;;;;;;;0.50;0.50;;;6.30;99.90;;;;;;5071323;28;20185;-61
2024/03/12 06:12:44;;;;;;;0.40;0.40;;;6.30;99.90;;;;;;5071005;28;20180;-60
2024/03/12 06:15:10;;;;;;;0.60;0.60;;;6.30;99.90;;;;;;5071233;28;20276;-61
2024/03/12 06:17:36;;;;;;;0.50;0.50;;;6.40;99.90;;;;;;5074815;28;20528;-61
2024/03/12 06:20:05;;;;;;;0.50;0.50;;;6.30;99.90;;;;;;5074917;28;20203;-61
2024/03/12 06:22:32;;;;;;;0.40;0.40;;;6.40;99.90;;;;;;5074838;28;20214;-61
2024/03/12 06:24:58;;;;;;;0.50;0.50;;;6.40;99.90;;;;;;5074981;28;20181;-61
2024/03/12 06:27:24;;;;;;;0.50;0.50;;;6.50;99.90;;;;;;5074920;28;20187;-61
2024/03/12 06:29:51;;;;;;;0.40;0.40;;;6.60;99.90;;;;;;5074617;28;20173;-60
2024/03/12 06:32:19;;;;;;;0.60;0.50;;;6.70;99.90;;;;;;5074815;28;20182;-60
2024/03/12 06:34:45;;;;;;;0.40;0.40;;;6.60;99.90;;;;;;5074826;28;20219;-61
2024/03/12 06:37:11;;;;;;;0.63;0.50;;;6.60;99.90;;;;;;5074658;28;20171;-61
2024/03/12 06:39:40;;;;;;;0.65;0.65;;;6.60;99.90;;;;;;5074485;28;20211;-61
2024/03/12 06:42:12;;;;;;;0.50;0.50;;;6.70;99.90;;;;;;5074822;28;20911;-61
2024/03/12 06:44:43;;;;;;;0.50;0.50;;;6.80;99.90;;;;;;5074794;28;20203;-61
2024/03/12 06:47:10;;;;;;;1.35;1.00;;;6.90;99.90;;;;;;5074825;28;20199;-61
2024/03/12 06:49:44;;;;;;;0.77;0.77;;;7.00;99.90;;;;;;5074250;28;20268;-61
2024/03/12 06:52:12;;;;;;;1.13;0.85;;;7.10;99.80;;;;;;5074481;28;20218;-61
2024/03/12 06:54:38;;;;;;;0.73;0.73;;;7.00;99.60;;;;;;5068623;28;20226;-61
2024/03/12 06:57:04;;;;;;;5.30;1.47;;;7.00;99.70;;;;;;5074221;28;20591;-61
2024/03/12 06:59:33;;;;;;;0.95;0.95;;;6.80;99.90;;;;;;5074038;28;20173;-59
2024/03/12 07:02:00;;;;;;;0.63;0.63;;;6.80;99.90;;;;;;5074260;28;20575;-60
2024/03/12 07:04:34;;;;;;;1.40;0.50;;;6.70;99.90;;;;;;5074126;28;20192;-60
2024/03/12 07:07:05;;;;;;;0.68;0.60;;;6.70;99.90;;;;;;5074164;28;20174;-60
2024/03/12 07:09:35;;;;;;;1.13;0.60;;;6.70;99.90;;;;;;5073730;28;20668;-59
2024/03/12 07:12:04;;;;;;;0.60;0.55;;;6.70;99.90;;;;;;5074297;28;20255;-60
2024/03/12 07:14:32;;;;;;;0.65;0.65;;;6.60;99.90;;;;;;5073222;28;20207;-59
2024/03/12 07:16:58;;;;;;;0.50;0.50;;;6.60;99.90;;;;;;5073480;28;20180;-60
2024/03/12 07:19:24;;;;;;;0.80;0.73;;;6.50;99.90;;;;;;5073739;28;20177;-60
2024/03/12 07:21:50;;;;;;;1.13;0.93;;;6.40;99.90;;;;;;5073682;28;20758;-60
2024/03/12 07:24:15;;;;;;;0.97;0.83;;;6.40;99.90;;;;;;5073760;28;20206;-60
2024/03/12 07:26:45;;;;;;;1.13;1.13;;;6.40;99.90;;;;;;5073507;28;20850;-59
2024/03/12 07:29:11;;;;;;;1.10;1.10;;;6.60;99.90;;;;;;5073211;28;20408;-60
2024/03/12 07:31:37;;;;;;;0.90;0.87;;;6.60;99.90;;;;;;5073691;28;20259;-60
2024/03/12 07:34:05;;;;;;;1.40;1.30;;;6.60;99.90;;;;;;5073034;28;20742;-60
2024/03/12 07:36:33;;;;;;;1.30;1.20;;;6.70;99.90;;;;;;5073188;28;20172;-60
2024/03/12 07:38:59;;;;;;;0.82;0.80;;;6.80;99.90;;;;;;5071593;28;20176;-60
2024/03/12 07:41:26;;;;;;;1.98;1.65;;;6.90;99.90;;;;;;5071606;28;20176;-59
2024/03/12 07:43:52;;;;;;;1.60;1.50;;;6.90;99.90;;;;;;5072866;28;20191;-59
2024/03/12 07:46:18;;;;;;;3.03;2.17;;;7.00;99.90;;;;;;5073217;28;20170;-60
2024/03/12 07:48:47;;;;;;;2.00;1.33;;;7.00;99.90;;;;;;5071317;28;20195;-60
2024/03/12 07:51:13;;;;;;;2.63;2.35;;;7.00;99.90;;;;;;5073152;28;20186;-59
2024/03/12 07:53:39;;;;;;;1.88;1.77;;;7.10;99.90;;;;;;5073705;28;20223;-60
2024/03/12 07:56:06;;;;;;;3.43;2.43;;;7.10;99.90;;;;;;5073659;28;20798;-60
2024/03/12 07:58:33;;;;;;;2.40;1.95;;;7.20;99.90;;;;;;5073727;28;20780;-59
2024/03/12 08:00:59;;;;;;;2.50;2.20;;;7.20;99.90;;;;;;5073290;28;20255;-59
2024/03/12 08:03:25;;;;;;;2.63;2.43;;;7.20;99.90;;;;;;5073134;28;20275;-60
2024/03/12 08:05:51;;;;;;;3.45;2.42;;;7.30;99.90;;;;;;5073024;28;20944;-61
2024/03/12 08:08:18;;;;;;;4.57;2.30;;;7.30;99.90;;;;;;5072784;28;20184;-60
2024/03/12 08:10:44;;;;;;;3.35;2.30;;;7.20;99.90;;;;;;5080015;28;20187;-60
2024/03/12 08:13:10;;;;;;;3.00;2.23;;;7.20;99.90;;;;;;5074717;28;20747;-59
2024/03/12 08:15:39;;;;;;;3.97;2.28;;;7.10;99.90;;;;;;5093207;28;20171;-59
2024/03/12 08:18:05;;;;;;;2.67;2.30;;;7.10;99.90;;;;;;5086325;28;20636;-60
2024/03/12 08:20:31;;;;;;;3.97;2.08;;;7.20;99.90;;;;;;5072692;28;20179;-60
2024/03/12 08:22:59;;;;;;;3.00;2.55;;;7.20;99.90;;;;;;5072734;28;20276;-60
2024/03/12 08:25:25;;;;;;;3.55;2.10;;;7.20;99.90;;;;;;5072712;28;20702;-60
2024/03/12 08:27:51;;;;;;;2.88;2.10;;;7.00;99.90;;;;;;5089069;28;20183;-60
2024/03/12 08:30:19;;;;;;;2.92;2.50;;;6.90;99.90;;;;;;5092741;28;20174;-59
2024/03/12 08:32:45;;;;;;;3.17;2.30;;;6.90;99.90;;;;;;5092599;28;20253;-60
2024/03/12 08:35:11;;;;;;;3.72;1.80;;;6.80;99.90;;;;;;5092612;28;20206;-60
2024/03/12 08:37:41;;;;;;;2.05;1.55;;;6.90;99.90;;;;;;5092696;28;20203;-59
2024/03/12 08:40:08;;;;;;;2.10;2.00;;;6.90;99.90;;;;;;5091843;28;20259;-59
2024/03/12 08:42:35;;;;;;;2.72;1.95;;;6.90;99.90;;;;;;5092504;28;20234;-60
2024/03/12 08:45:01;;;;;;;2.85;2.50;;;6.70;99.90;;;;;;5074871;28;20240;-59
2024/03/12 08:47:29;;;;;;;2.50;2.30;;;6.50;99.90;;;;;;5072146;28;20204;-60
2024/03/12 08:49:55;;;;;;;2.25;2.05;;;6.40;99.90;;;;;;5071925;28;20177;-60
2024/03/12 08:52:22;;;;;;;3.25;2.20;;;6.50;99.90;;;;;;5072179;28;20222;-60
2024/03/12 08:54:49;;;;;;;4.07;2.28;;;6.60;99.90;;;;;;5054559;28;20295;-60
2024/03/12 08:57:15;;;;;;;4.33;2.70;;;6.70;99.90;;;;;;5072056;28;20251;-60
2024/03/12 08:59:41;;;;;;;3.40;2.20;;;6.60;99.90;;;;;;5071756;28;20180;-60
2024/03/12 09:02:07;;;;;;;6.73;3.80;;;6.70;99.90;;;;;;5071985;28;20561;-59
2024/03/12 09:04:32;;;;;;;4.13;3.00;;;6.70;99.90;;;;;;5071879;28;20240;-59
2024/03/12 09:07:00;;;;;;;3.63;2.83;;;6.50;99.90;;;;;;5072200;28;20190;-60
2024/03/12 09:09:26;;;;;;;3.35;3.05;;;6.60;99.90;;;;;;5071608;28;20657;-60
2024/03/12 09:11:54;;;;;;;6.15;3.72;;;6.50;99.90;;;;;;5058044;28;20184;-59
2024/03/12 09:14:21;;;;;;;7.50;3.40;;;6.60;99.90;;;;;;5051541;28;20219;-59
2024/03/12 09:16:48;;;;;;;7.63;3.88;;;6.90;99.90;;;;;;5051803;28;20180;-59
2024/03/12 09:19:13;;;;;;;5.05;3.92;;;7.00;99.90;;;;;;5051562;28;20248;-60
2024/03/12 09:21:39;;;;;;;7.50;4.73;;;6.90;99.90;;;;;;5051777;28;20199;-59
2024/03/12 09:24:05;;;;;;;6.77;4.60;;;7.00;99.90;;;;;;5059740;28;20843;-59
2024/03/12 09:26:33;;;;;;;3.78;3.40;;;7.10;99.90;;;;;;5079905;28;20168;-59
2024/03/12 09:28:59;;;;;;;4.20;3.60;;;7.00;99.90;;;;;;5075671;28;20609;-59
2024/03/12 09:31:25;;;;;;;4.28;3.88;;;7.10;99.90;;;;;;5071435;28;20184;-59
2024/03/12 09:33:51;;;;;;;6.07;3.83;;;7.00;99.90;;;;;;5071432;28;20207;-59
2024/03/12 09:36:17;;;;;;;5.00;3.92;;;7.00;99.90;;;;;;5071534;28;20411;-59
2024/03/12 09:38:44;;;;;;;7.97;5.17;;;7.10;99.90;;;;;;5071374;28;20173;-60
2024/03/12 09:41:12;;;;;;;5.65;3.55;;;7.20;99.90;;;;;;5071368;28;20200;-60
2024/03/12 09:43:39;;;;;;;5.93;3.67;;;7.20;99.90;;;;;;5071463;28;20275;-60
2024/03/12 09:46:05;;;;;;;8.38;4.00;;;7.20;99.90;;;;;;5071574;28;20186;-61
2024/03/12 09:48:31;;;;;;;4.75;4.35;;;7.30;99.90;;;;;;5071571;28;20586;-59
2024/03/12 09:50:59;;;;;;;5.50;3.90;;;7.10;99.90;;;;;;5074374;28;20180;-58
2024/03/12 09:53:25;;;;;;;6.22;3.90;;;6.90;99.90;;;;;;5075672;28;20480;-59
2024/03/12 09:55:51;;;;;;;5.55;4.78;;;6.80;99.90;;;;;;5075733;28;20259;-59
2024/03/12 09:58:17;;;;;;;7.68;3.58;;;6.90;99.90;;;;;;5075224;28;20542;-55
2024/03/12 10:00:43;;;;;;;5.43;3.93;;;6.70;99.90;;;;;;5075641;28;20226;-58
2024/03/12 10:03:09;;;;;;;6.43;3.65;;;6.80;99.90;;;;;;5075482;28;20283;-56
2024/03/12 10:05:37;;;;;;;6.60;3.00;;;7.00;99.90;;;;;;5075666;28;20322;-57
2024/03/12 10:08:13;;;;;;;9.98;3.30;;;6.80;99.90;;;;;;5075356;28;20165;-58
2024/03/12 10:10:43;;;;;;;3.80;3.28;;;7.00;99.90;;;;;;5075533;28;20180;-58
2024/03/12 10:13:14;;;;;;;5.20;3.30;;;6.90;99.90;;;;;;5075295;28;20291;-58
2024/03/12 10:15:59;;;;;;;7.10;4.85;;;7.00;99.90;;;;;;5075359;28;20168;-58
2024/03/12 10:18:30;;;;;;;5.18;3.85;;;7.10;99.90;;;;;;5075092;28;20251;-59
2024/03/12 10:20:57;;;;;;;4.82;4.28;;;6.80;99.90;;;;;;5075282;28;20526;-58
2024/03/12 10:23:27;;;;;;;4.35;3.95;;;6.90;99.90;;;;;;5075117;28;20183;-62
2024/03/12 10:26:07;;;;;;;6.90;4.32;;;6.60;99.90;;;;;;5075167;28;20236;-59
2024/03/12 10:28:33;;;;;;;13.68;8.88;;;;;;;;;;5074601;28;20172;-60
2024/03/12 10:31:11;;;;;;;6.47;4.47;;;6.90;99.90;;;;;;5074912;28;20169;-59
2024/03/12 10:33:44;;;;;;;10.23;4.43;;;5.40;99.90;;;;;;5074640;28;20287;-60
2024/03/12 10:36:10;;;;;;;14.25;9.85;;;;;;;;;;5074809;28;20264;-60
2024/03/12 10:38:39;;;;;;;5.25;4.55;;;6.90;99.90;;;;;;5074512;28;20193;-60
2024/03/12 10:41:19;;;;;;;6.35;5.30;;;6.90;99.90;;;;;;5074657;28;20181;-60
2024/03/12 10:43:50;;;;;;;10.27;4.32;;;6.90;99.90;;;;;;5074663;28;20616;-60
2024/03/12 10:46:17;;;;;;;19.67;14.82;;;6.90;99.90;;;;;;5074602;28;20218;-60
2024/03/12 10:48:45;;;;;;;8.27;4.80;;;7.00;99.90;;;;;;5074270;28;20618;-59
2024/03/12 10:51:13;;;;;;;6.72;4.18;;;7.00;99.90;;;;;;5074501;28;20252;-61
2024/03/12 10:53:49;;;;;;;10.88;7.05;;;6.80;99.90;;;;;;5074266;28;20210;-60
2024/03/12 10:56:16;;;;;;;10.27;8.02;;;;;;;;;;5072030;28;20249;-61
2024/03/12 10:58:48;;;;;;;10.98;8.68;;;6.90;99.90;;;;;;5083995;28;20646;-61
2024/03/12 11:01:18;;;;;;;8.77;5.10;;;7.10;99.90;;;;;;5084811;28;20211;-61
2024/03/12 11:03:44;;;;;;;7.75;4.35;;;7.00;99.90;;;;;;5074296;28;20221;-62
2024/03/12 11:06:13;;;;;;;8.95;6.05;;;7.00;99.90;;;;;;5074192;28;20164;-64
2024/03/12 11:08:39;;;;;;;7.38;4.72;;;6.80;99.90;;;;;;5074003;28;20177;-61
2024/03/12 11:11:09;;;;;;;8.40;6.57;;;7.20;99.90;;;;;;5074137;28;20175;-61
2024/03/12 11:13:35;;;;;;;8.07;5.32;;;7.00;99.90;;;;;;5073943;28;20226;-61
2024/03/12 11:16:12;;;;;;;7.15;5.03;;;6.80;99.90;;;;;;5074139;28;20619;-61
2024/03/12 11:18:39;;;;;;;10.80;6.82;;;6.70;99.90;;;;;;5073729;28;20578;-61
2024/03/12 11:21:05;;;;;;;8.13;6.45;;;6.70;99.90;;;;;;5074030;28;20240;-61
2024/03/12 11:23:32;;;;;;;8.88;7.18;;;6.90;99.90;;;;;;5073881;28;20188;-62
2024/03/12 11:25:59;;;;;;;11.10;6.15;;;7.10;99.90;;;;;;5074111;28;20202;-62
2024/03/12 11:28:26;;;;;;;5.47;3.90;;;7.30;99.90;;;;;;5073646;28;20211;-61
2024/03/12 11:30:55;;;;;;;16.05;7.30;;;7.40;99.90;;;;;;5073868;28;20552;-61
2024/03/12 11:33:45;;;;;;;10.68;7.25;;;7.60;99.90;;;;;;5073647;28;20205;-61
2024/03/12 11:36:29;;;;;;;10.32;5.15;;;7.90;99.80;;;;;;5073714;28;20185;-61
2024/03/12 11:38:58;;;;;;;5.07;4.57;;;7.90;99.80;;;;;;5073430;28;20176;-61
2024/03/12 11:41:25;;;;;;;9.98;5.43;;;8.10;99.90;;;;;;5073806;28;20184;-61
2024/03/12 11:43:51;;;;;;;13.63;5.45;;;8.20;99.70;;;;;;5073569;28;20220;-61
2024/03/12 11:46:44;;;;;;;8.90;5.15;;;8.20;98.90;;;;;;5073523;28;20189;-61
2024/03/12 11:49:38;;;;;;;8.93;6.60;;;8.20;98.90;;;;;;5073259;28;20165;-61
2024/03/12 11:52:07;;;;;;;7.15;6.07;;;8.30;99.40;;;;;;5070508;28;20189;-62
2024/03/12 11:54:39;;;;;;;11.05;5.75;;;8.40;99.40;;;;;;5073240;28;20256;-61
2024/03/12 11:57:19;;;;;;;9.23;5.88;;;8.40;98.90;;;;;;5073261;28;20174;-61
2024/03/12 11:59:45;;;;;;;7.93;4.50;;;8.20;98.70;;;;;;5073103;28;20177;-61
2024/03/12 12:02:11;;;;;;;8.88;6.15;;;8.20;99.10;;;;;;5073191;28;20166;-61
2024/03/12 12:04:37;;;;;;;8.45;5.32;;;8.20;99.30;;;;;;5073266;28;20201;-61
2024/03/12 12:07:03;;;;;;;8.93;5.27;;;8.20;98.70;;;;;;5073123;28;20174;-61
2024/03/12 12:09:28;;;;;;;10.20;5.40;;;7.90;98.60;;;;;;5072793;28;20185;-62
2024/03/12 12:11:54;;;;;;;9.00;6.03;;;7.90;99.00;;;;;;5073027;28;20178;-61
2024/03/12 12:14:22;;;;;;;7.50;5.20;;;7.90;98.80;;;;;;5071596;28;20611;-61
2024/03/12 12:16:56;;;;;;;11.10;6.80;;;7.90;98.90;;;;;;5073173;28;20185;-61
2024/03/12 12:19:22;;;;;;;10.80;5.97;;;7.80;99.00;;;;;;5073005;28;20175;-61
2024/03/12 12:21:51;;;;;;;11.48;5.32;;;7.80;99.10;;;;;;5072762;28;20173;-61
2024/03/12 12:24:17;;;;;;;10.77;5.32;;;7.80;99.20;;;;;;5072661;28;20201;-60
2024/03/12 12:26:46;;;;;;;8.20;5.43;;;7.90;99.00;;;;;;5072732;28;20173;-62
2024/03/12 12:29:14;;;;;;;10.82;6.97;;;8.00;98.90;;;;;;5054434;28;20173;-61
2024/03/12 12:31:41;;;;;;;10.02;6.70;;;8.00;99.00;;;;;;5072642;28;20173;-61
2024/03/12 12:34:09;;;;;;;10.65;5.93;;;7.60;99.00;;;;;;5072100;28;20201;-61
2024/03/12 12:36:39;;;;;;;11.60;7.28;;;7.40;99.50;;;;;;5072421;28;20169;-61
2024/03/12 12:39:09;;;;;;;13.43;8.05;;;7.40;99.80;;;;;;5072471;28;20184;-61
2024/03/12 12:41:39;;;;;;;15.02;9.10;;;7.40;99.60;;;;;;5072634;28;20180;-61
2024/03/12 12:44:15;;;;;;;13.05;6.38;;;7.40;99.90;;;;;;5072191;28;20289;-61
2024/03/12 12:46:42;;;;;;;26.77;7.93;;;7.30;99.90;;;;;;5055542;28;20706;-61
2024/03/12 12:49:11;;;;;;;15.25;6.80;;;7.30;99.90;;;;;;5071872;28;20265;-61
2024/03/12 12:51:37;;;;;;;32.00;17.85;;;7.40;99.90;;;;;;5072203;28;20166;-61
2024/03/12 12:54:04;;;;;;;11.48;8.40;;;7.30;99.90;;;;;;5072047;28;20194;-61
2024/03/12 12:56:39;;;;;;;11.73;7.88;;;7.50;99.90;;;;;;5072216;28;20181;-61
2024/03/12 12:59:13;;;;;;;14.60;7.70;;;7.60;99.90;;;;;;5071799;28;20207;-61
2024/03/12 13:01:39;;;;;;;27.38;17.15;;;7.40;99.90;;;;;;5072043;28;20712;-61
2024/03/12 13:04:29;;;;;;;15.35;8.93;;;7.40;99.90;;;;;;5071866;28;20211;-62
2024/03/12 13:06:56;;;;;;;7.43;5.97;;;7.40;99.90;;;;;;5059321;28;20218;-61
2024/03/12 13:09:32;;;;;;;10.68;7.45;;;7.40;99.90;;;;;;5071811;28;20659;-61